7VA7 weather

Virginia DMV Headquarters Heliport
Richmond, Virginia, United States

Public forecast

Using degrees Fahrenheit for public forecast. Weather courtesy of forecast.io.

Closest aviation weather report (METAR) to Virginia DMV Headquarters Heliport

Closest report is Richmond International Airport, 7.6 nm (14.0 km) ESE. Retrieved 2020/05/28 11:40 UTC (18 minutes ago):

KRIC 281140Z 15010KT 10SM SCT007 BKN011 OVC016 23/22 A3007

Closest aviation forecast (TAF) to Virginia DMV Headquarters Heliport

Closest forecast is Richmond International Airport, 7.6 nm (14.0 km) ESE. Retrieved 2020/05/28 06:28 UTC (6 hours ago):

TAF KRIC 280526Z 2806/2906 12010KT P6SM -SHRA OVC007 FM280800 13010KT P6SM VCSH OVC007 FM281200 15011G18KT P6SM -SHRA OVC009 FM281400 16010G17KT P6SM -SHRA OVC012 FM281600 17009KT 5SM -SHRA OVC025 FM281800 19009KT 5SM -SHRA OVC045 FM282200 18007KT P6SM BKN100